sensor_id;sensor_type;location;lat;lon;timestamp;pressure;altitude;pressure_sealevel;temperature;humidity
76022;BME280;64718;52.124;6.226;2022-12-20T00:00:26;101365.53;;;7.50;91.80
76022;BME280;64718;52.124;6.226;2022-12-20T00:02:52;101377.66;;;7.48;91.61
76022;BME280;64718;52.124;6.226;2022-12-20T00:05:19;101371.59;;;7.49;91.36
76022;BME280;64718;52.124;6.226;2022-12-20T00:07:45;101372.41;;;7.51;91.51
76022;BME280;64718;52.124;6.226;2022-12-20T00:10:12;101376.53;;;7.61;90.82
76022;BME280;64718;52.124;6.226;2022-12-20T00:12:39;101366.59;;;7.81;90.21
76022;BME280;64718;52.124;6.226;2022-12-20T00:15:06;101362.16;;;7.86;89.78
76022;BME280;64718;52.124;6.226;2022-12-20T00:17:34;101356.34;;;7.77;90.03
76022;BME280;64718;52.124;6.226;2022-12-20T00:20:00;101346.66;;;7.85;89.79
76022;BME280;64718;52.124;6.226;2022-12-20T00:22:27;101343.88;;;7.92;89.46
76022;BME280;64718;52.124;6.226;2022-12-20T00:24:53;101334.13;;;8.04;88.78
76022;BME280;64718;52.124;6.226;2022-12-20T00:27:20;101335.59;;;8.15;88.25
76022;BME280;64718;52.124;6.226;2022-12-20T00:29:46;101333.00;;;8.15;88.39
76022;BME280;64718;52.124;6.226;2022-12-20T00:32:13;101342.53;;;8.13;88.47
76022;BME280;64718;52.124;6.226;2022-12-20T00:34:41;101346.03;;;8.12;88.00
76022;BME280;64718;52.124;6.226;2022-12-20T00:37:07;101347.66;;;8.16;88.36
76022;BME280;64718;52.124;6.226;2022-12-20T00:39:34;101340.03;;;8.10;88.10
76022;BME280;64718;52.124;6.226;2022-12-20T00:42:00;101349.47;;;8.13;88.28
76022;BME280;64718;52.124;6.226;2022-12-20T00:44:27;101346.13;;;8.06;88.74
76022;BME280;64718;52.124;6.226;2022-12-20T00:46:54;101347.13;;;8.01;87.92
76022;BME280;64718;52.124;6.226;2022-12-20T00:49:20;101338.16;;;8.15;88.28
76022;BME280;64718;52.124;6.226;2022-12-20T00:51:48;101338.28;;;8.11;87.93
76022;BME280;64718;52.124;6.226;2022-12-20T00:54:15;101338.13;;;8.17;87.99
76022;BME280;64718;52.124;6.226;2022-12-20T00:56:41;101341.19;;;8.34;87.03
76022;BME280;64718;52.124;6.226;2022-12-20T00:59:08;101344.59;;;8.36;87.14
76022;BME280;64718;52.124;6.226;2022-12-20T01:01:34;101338.56;;;8.36;86.76
76022;BME280;64718;52.124;6.226;2022-12-20T01:04:01;101339.28;;;8.41;86.65
76022;BME280;64718;52.124;6.226;2022-12-20T01:06:29;101343.38;;;8.49;86.05
76022;BME280;64718;52.124;6.226;2022-12-20T01:08:57;101339.78;;;8.55;86.25
76022;BME280;64718;52.124;6.226;2022-12-20T01:11:26;101351.00;;;8.55;86.05
76022;BME280;64718;52.124;6.226;2022-12-20T01:13:55;101340.84;;;8.80;84.81
76022;BME280;64718;52.124;6.226;2022-12-20T01:16:24;101334.84;;;8.78;85.29
76022;BME280;64718;52.124;6.226;2022-12-20T01:18:52;101334.63;;;8.86;84.78
76022;BME280;64718;52.124;6.226;2022-12-20T01:21:20;101336.56;;;8.79;85.03
76022;BME280;64718;52.124;6.226;2022-12-20T01:23:47;101332.25;;;8.78;85.20
76022;BME280;64718;52.124;6.226;2022-12-20T01:26:17;101332.72;;;8.93;84.89
76022;BME280;64718;52.124;6.226;2022-12-20T01:28:45;101320.59;;;8.93;84.76
76022;BME280;64718;52.124;6.226;2022-12-20T01:31:14;101327.72;;;8.86;84.63
76022;BME280;64718;52.124;6.226;2022-12-20T01:33:41;101328.59;;;8.85;85.17
76022;BME280;64718;52.124;6.226;2022-12-20T01:36:12;101326.22;;;9.09;83.74
76022;BME280;64718;52.124;6.226;2022-12-20T01:38:39;101322.66;;;9.11;83.56
76022;BME280;64718;52.124;6.226;2022-12-20T01:41:06;101325.34;;;9.08;83.43
76022;BME280;64718;52.124;6.226;2022-12-20T01:43:47;101328.25;;;8.98;84.01
76022;BME280;64718;52.124;6.226;2022-12-20T01:46:14;101339.44;;;9.00;84.09
76022;BME280;64718;52.124;6.226;2022-12-20T01:48:42;101342.66;;;9.08;84.08
76022;BME280;64718;52.124;6.226;2022-12-20T01:51:11;101342.63;;;9.09;83.88
76022;BME280;64718;52.124;6.226;2022-12-20T01:53:38;101339.34;;;9.03;85.23
76022;BME280;64718;52.124;6.226;2022-12-20T01:56:06;101335.66;;;9.11;83.97
76022;BME280;64718;52.124;6.226;2022-12-20T01:58:35;101344.19;;;9.15;83.85
76022;BME280;64718;52.124;6.226;2022-12-20T02:01:05;101342.59;;;9.11;85.21
76022;BME280;64718;52.124;6.226;2022-12-20T02:03:32;101335.00;;;9.03;85.83
76022;BME280;64718;52.124;6.226;2022-12-20T02:06:13;101339.63;;;8.94;87.29
76022;BME280;64718;52.124;6.226;2022-12-20T02:08:40;101335.66;;;8.80;88.33
76022;BME280;64718;52.124;6.226;2022-12-20T02:11:16;101332.94;;;8.85;88.15
76022;BME280;64718;52.124;6.226;2022-12-20T02:13:53;101323.84;;;8.70;88.95
76022;BME280;64718;52.124;6.226;2022-12-20T02:16:25;101313.34;;;8.75;88.69
76022;BME280;64718;52.124;6.226;2022-12-20T02:18:57;101313.69;;;8.61;89.47
76022;BME280;64718;52.124;6.226;2022-12-20T02:21:33;101310.06;;;8.67;89.59
76022;BME280;64718;52.124;6.226;2022-12-20T02:24:30;101321.41;;;8.63;90.62
76022;BME280;64718;52.124;6.226;2022-12-20T02:27:48;101321.31;;;8.67;90.41
76022;BME280;64718;52.124;6.226;2022-12-20T02:30:19;101319.63;;;8.65;91.11
76022;BME280;64718;52.124;6.226;2022-12-20T02:32:54;101315.50;;;8.57;90.79
76022;BME280;64718;52.124;6.226;2022-12-20T02:35:25;101312.06;;;8.57;91.77
76022;BME280;64718;52.124;6.226;2022-12-20T02:37:54;101304.41;;;8.52;92.82
76022;BME280;64718;52.124;6.226;2022-12-20T02:40:24;101299.56;;;8.40;93.20
76022;BME280;64718;52.124;6.226;2022-12-20T02:42:54;101284.13;;;8.36;93.96
76022;BME280;64718;52.124;6.226;2022-12-20T02:45:25;101281.44;;;8.39;94.42
76022;BME280;64718;52.124;6.226;2022-12-20T02:47:54;101274.53;;;8.39;94.71
76022;BME280;64718;52.124;6.226;2022-12-20T02:50:26;101270.41;;;8.31;95.42
76022;BME280;64718;52.124;6.226;2022-12-20T02:52:53;101263.31;;;8.39;95.40
76022;BME280;64718;52.124;6.226;2022-12-20T02:55:25;101260.00;;;8.32;95.34
76022;BME280;64718;52.124;6.226;2022-12-20T02:57:58;101270.31;;;8.35;95.76
76022;BME280;64718;52.124;6.226;2022-12-20T03:00:31;101276.41;;;8.34;95.79
76022;BME280;64718;52.124;6.226;2022-12-20T03:03:00;101285.63;;;8.44;96.01
76022;BME280;64718;52.124;6.226;2022-12-20T03:05:45;101282.94;;;8.47;96.32
76022;BME280;64718;52.124;6.226;2022-12-20T03:08:13;101287.25;;;8.48;95.79
76022;BME280;64718;52.124;6.226;2022-12-20T03:10:40;101295.91;;;8.47;96.46
76022;BME280;64718;52.124;6.226;2022-12-20T03:13:07;101284.66;;;8.48;96.56
76022;BME280;64718;52.124;6.226;2022-12-20T03:15:35;101276.97;;;8.45;96.63
76022;BME280;64718;52.124;6.226;2022-12-20T03:18:02;101271.03;;;8.40;96.46
76022;BME280;64718;52.124;6.226;2022-12-20T03:20:29;101266.84;;;8.36;96.92
76022;BME280;64718;52.124;6.226;2022-12-20T03:22:55;101274.56;;;8.38;96.77
76022;BME280;64718;52.124;6.226;2022-12-20T03:25:22;101273.72;;;8.37;97.05
76022;BME280;64718;52.124;6.226;2022-12-20T03:27:48;101270.91;;;8.45;96.71
76022;BME280;64718;52.124;6.226;2022-12-20T03:30:15;101276.06;;;8.46;96.58
76022;BME280;64718;52.124;6.226;2022-12-20T03:32:43;101276.84;;;8.50;96.28
76022;BME280;64718;52.124;6.226;2022-12-20T03:35:10;101269.94;;;8.49;96.56
76022;BME280;64718;52.124;6.226;2022-12-20T03:37:36;101268.03;;;8.55;96.54
76022;BME280;64718;52.124;6.226;2022-12-20T03:40:03;101266.34;;;8.54;96.02
76022;BME280;64718;52.124;6.226;2022-12-20T03:42:30;101273.25;;;8.54;96.43
76022;BME280;64718;52.124;6.226;2022-12-20T03:44:57;101266.63;;;8.44;96.81
76022;BME280;64718;52.124;6.226;2022-12-20T03:47:23;101272.94;;;8.34;96.89
76022;BME280;64718;52.124;6.226;2022-12-20T03:49:52;101269.56;;;8.30;96.74
76022;BME280;64718;52.124;6.226;2022-12-20T03:52:18;101260.16;;;8.26;97.16
76022;BME280;64718;52.124;6.226;2022-12-20T03:54:45;101263.59;;;8.27;96.78
76022;BME280;64718;52.124;6.226;2022-12-20T03:57:11;101258.25;;;8.33;96.60
76022;BME280;64718;52.124;6.226;2022-12-20T03:59:38;101256.38;;;8.39;96.25
76022;BME280;64718;52.124;6.226;2022-12-20T04:02:04;101252.97;;;8.37;95.63
76022;BME280;64718;52.124;6.226;2022-12-20T04:04:31;101252.94;;;8.39;95.87
76022;BME280;64718;52.124;6.226;2022-12-20T04:07:01;101251.06;;;8.44;95.73
76022;BME280;64718;52.124;6.226;2022-12-20T04:09:28;101255.56;;;8.37;95.91
76022;BME280;64718;52.124;6.226;2022-12-20T04:11:54;101236.41;;;8.43;96.04
76022;BME280;64718;52.124;6.226;2022-12-20T04:14:21;101235.44;;;8.47;95.27
76022;BME280;64718;52.124;6.226;2022-12-20T04:16:47;101244.63;;;8.59;94.24
76022;BME280;64718;52.124;6.226;2022-12-20T04:19:14;101247.22;;;8.59;94.37
76022;BME280;64718;52.124;6.226;2022-12-20T04:21:40;101242.78;;;8.62;94.23
76022;BME280;64718;52.124;6.226;2022-12-20T04:24:08;101241.78;;;8.68;93.74
76022;BME280;64718;52.124;6.226;2022-12-20T04:26:36;101230.53;;;8.69;93.26
76022;BME280;64718;52.124;6.226;2022-12-20T04:29:02;101229.63;;;8.70;93.58
76022;BME280;64718;52.124;6.226;2022-12-20T04:31:29;101240.50;;;8.82;92.65
76022;BME280;64718;52.124;6.226;2022-12-20T04:33:55;101226.78;;;8.79;92.52
76022;BME280;64718;52.124;6.226;2022-12-20T04:36:22;101229.00;;;8.91;91.63
76022;BME280;64718;52.124;6.226;2022-12-20T04:38:49;101222.59;;;9.03;91.10
76022;BME280;64718;52.124;6.226;2022-12-20T04:41:16;101222.97;;;8.91;92.05
76022;BME280;64718;52.124;6.226;2022-12-20T04:43:48;101217.66;;;8.95;91.30
76022;BME280;64718;52.124;6.226;2022-12-20T04:46:15;101228.13;;;8.92;91.94
76022;BME280;64718;52.124;6.226;2022-12-20T04:48:41;101230.66;;;8.94;91.88
76022;BME280;64718;52.124;6.226;2022-12-20T04:51:08;101219.03;;;9.07;91.25
76022;BME280;64718;52.124;6.226;2022-12-20T04:53:34;101226.72;;;9.10;90.60
76022;BME280;64718;52.124;6.226;2022-12-20T04:56:13;101215.53;;;9.08;90.86
76022;BME280;64718;52.124;6.226;2022-12-20T04:58:41;101213.06;;;9.03;91.35
76022;BME280;64718;52.124;6.226;2022-12-20T05:01:08;101211.13;;;9.10;91.27
76022;BME280;64718;52.124;6.226;2022-12-20T05:03:35;101200.00;;;9.06;90.65
76022;BME280;64718;52.124;6.226;2022-12-20T05:06:02;101191.03;;;9.16;90.04
76022;BME280;64718;52.124;6.226;2022-12-20T05:08:29;101193.31;;;9.27;89.31
76022;BME280;64718;52.124;6.226;2022-12-20T05:10:55;101197.66;;;9.27;89.73
76022;BME280;64718;52.124;6.226;2022-12-20T05:13:22;101192.44;;;9.28;89.74
76022;BME280;64718;52.124;6.226;2022-12-20T05:15:51;101199.81;;;9.40;89.20
76022;BME280;64718;52.124;6.226;2022-12-20T05:18:18;101195.47;;;9.41;89.36
76022;BME280;64718;52.124;6.226;2022-12-20T05:20:45;101197.94;;;9.45;89.08
76022;BME280;64718;52.124;6.226;2022-12-20T05:23:11;101206.47;;;9.49;89.31
76022;BME280;64718;52.124;6.226;2022-12-20T05:25:56;101204.75;;;9.48;89.55
76022;BME280;64718;52.124;6.226;2022-12-20T05:28:40;101215.19;;;9.46;89.84
76022;BME280;64718;52.124;6.226;2022-12-20T05:31:08;101204.75;;;9.48;90.06
76022;BME280;64718;52.124;6.226;2022-12-20T05:33:35;101201.56;;;9.40;90.97
76022;BME280;64718;52.124;6.226;2022-12-20T05:36:02;101202.63;;;9.34;91.00
76022;BME280;64718;52.124;6.226;2022-12-20T05:38:28;101200.31;;;9.24;91.92
76022;BME280;64718;52.124;6.226;2022-12-20T05:40:55;101200.47;;;9.19;92.02
76022;BME280;64718;52.124;6.226;2022-12-20T05:43:22;101193.72;;;9.13;92.69
76022;BME280;64718;52.124;6.226;2022-12-20T05:45:50;101193.88;;;9.09;93.58
76022;BME280;64718;52.124;6.226;2022-12-20T05:48:19;101186.88;;;9.11;93.22
76022;BME280;64718;52.124;6.226;2022-12-20T05:50:45;101189.44;;;9.12;93.80
76022;BME280;64718;52.124;6.226;2022-12-20T05:53:13;101190.34;;;9.11;94.44
76022;BME280;64718;52.124;6.226;2022-12-20T05:55:42;101183.50;;;9.09;94.86
76022;BME280;64718;52.124;6.226;2022-12-20T05:58:09;101181.97;;;9.02;95.11
76022;BME280;64718;52.124;6.226;2022-12-20T06:00:38;101176.78;;;9.02;96.35
76022;BME280;64718;52.124;6.226;2022-12-20T06:03:05;101165.72;;;8.97;96.74
76022;BME280;64718;52.124;6.226;2022-12-20T06:05:35;101170.81;;;9.00;97.05
76022;BME280;64718;52.124;6.226;2022-12-20T06:08:02;101178.72;;;8.95;96.77
76022;BME280;64718;52.124;6.226;2022-12-20T06:10:28;101169.28;;;8.93;96.88
76022;BME280;64718;52.124;6.226;2022-12-20T06:12:55;101171.88;;;8.93;97.08
76022;BME280;64718;52.124;6.226;2022-12-20T06:15:21;101170.06;;;8.96;97.28
76022;BME280;64718;52.124;6.226;2022-12-20T06:17:48;101165.75;;;8.95;97.36
76022;BME280;64718;52.124;6.226;2022-12-20T06:20:15;101167.59;;;8.92;97.39
76022;BME280;64718;52.124;6.226;2022-12-20T06:22:43;101167.31;;;9.01;97.59
76022;BME280;64718;52.124;6.226;2022-12-20T06:25:10;101157.94;;;8.97;97.19
76022;BME280;64718;52.124;6.226;2022-12-20T06:27:36;101159.72;;;8.95;97.19
76022;BME280;64718;52.124;6.226;2022-12-20T06:30:04;101170.16;;;8.93;97.53
76022;BME280;64718;52.124;6.226;2022-12-20T06:32:31;101166.78;;;8.90;96.92
76022;BME280;64718;52.124;6.226;2022-12-20T06:34:58;101161.38;;;8.97;96.63
76022;BME280;64718;52.124;6.226;2022-12-20T06:37:25;101152.75;;;8.97;96.24
76022;BME280;64718;52.124;6.226;2022-12-20T06:39:53;101161.31;;;8.99;96.05
76022;BME280;64718;52.124;6.226;2022-12-20T06:42:19;101138.78;;;9.01;95.64
76022;BME280;64718;52.124;6.226;2022-12-20T06:44:46;101142.38;;;8.97;95.38
76022;BME280;64718;52.124;6.226;2022-12-20T06:47:14;101144.56;;;9.09;95.09
76022;BME280;64718;52.124;6.226;2022-12-20T06:49:40;101124.72;;;9.08;94.80
76022;BME280;64718;52.124;6.226;2022-12-20T06:52:07;101130.66;;;9.11;94.65
76022;BME280;64718;52.124;6.226;2022-12-20T06:54:34;101129.91;;;9.08;94.01
76022;BME280;64718;52.124;6.226;2022-12-20T06:57:02;101123.00;;;9.07;94.37
76022;BME280;64718;52.124;6.226;2022-12-20T06:59:28;101128.00;;;9.13;93.82
76022;BME280;64718;52.124;6.226;2022-12-20T07:01:55;101129.84;;;9.09;93.60
76022;BME280;64718;52.124;6.226;2022-12-20T07:04:22;101128.06;;;9.11;93.45
76022;BME280;64718;52.124;6.226;2022-12-20T07:06:48;101128.16;;;9.08;93.92
76022;BME280;64718;52.124;6.226;2022-12-20T07:09:15;101115.94;;;9.12;93.78
76022;BME280;64718;52.124;6.226;2022-12-20T07:11:42;101121.16;;;9.10;93.32
76022;BME280;64718;52.124;6.226;2022-12-20T07:14:10;101131.94;;;9.25;92.64
76022;BME280;64718;52.124;6.226;2022-12-20T07:16:37;101126.84;;;9.22;92.22
76022;BME280;64718;52.124;6.226;2022-12-20T07:19:05;101117.53;;;9.16;92.56
76022;BME280;64718;52.124;6.226;2022-12-20T07:21:32;101126.06;;;9.19;92.15
76022;BME280;64718;52.124;6.226;2022-12-20T07:23:59;101127.59;;;9.27;91.43
76022;BME280;64718;52.124;6.226;2022-12-20T07:26:25;101122.25;;;9.31;90.91
76022;BME280;64718;52.124;6.226;2022-12-20T07:28:53;101119.94;;;9.48;89.64
76022;BME280;64718;52.124;6.226;2022-12-20T07:31:21;101127.25;;;9.37;89.53
76022;BME280;64718;52.124;6.226;2022-12-20T07:33:47;101135.44;;;9.24;90.38
76022;BME280;64718;52.124;6.226;2022-12-20T07:36:14;101138.78;;;9.29;89.50
76022;BME280;64718;52.124;6.226;2022-12-20T07:38:41;101132.72;;;9.28;89.75
76022;BME280;64718;52.124;6.226;2022-12-20T07:41:08;101131.09;;;9.24;90.01
76022;BME280;64718;52.124;6.226;2022-12-20T07:43:35;101143.06;;;9.30;89.33
76022;BME280;64718;52.124;6.226;2022-12-20T07:46:02;101125.63;;;9.33;89.15
76022;BME280;64718;52.124;6.226;2022-12-20T07:48:30;101130.72;;;9.36;89.08
76022;BME280;64718;52.124;6.226;2022-12-20T07:51:00;101134.06;;;9.40;88.42
76022;BME280;64718;52.124;6.226;2022-12-20T07:53:29;101128.13;;;9.36;89.17
76022;BME280;64718;52.124;6.226;2022-12-20T07:55:57;101123.53;;;9.44;87.52
76022;BME280;64718;52.124;6.226;2022-12-20T07:58:24;101131.31;;;9.44;87.65
76022;BME280;64718;52.124;6.226;2022-12-20T08:00:52;101111.88;;;9.31;88.41
76022;BME280;64718;52.124;6.226;2022-12-20T08:03:20;101125.03;;;9.25;88.83
76022;BME280;64718;52.124;6.226;2022-12-20T08:05:51;101112.97;;;9.23;88.21
76022;BME280;64718;52.124;6.226;2022-12-20T08:08:19;101116.56;;;9.18;88.74
76022;BME280;64718;52.124;6.226;2022-12-20T08:10:47;101125.25;;;9.17;88.38
76022;BME280;64718;52.124;6.226;2022-12-20T08:13:14;101127.00;;;9.17;88.50
76022;BME280;64718;52.124;6.226;2022-12-20T08:15:41;101126.06;;;9.19;88.41
76022;BME280;64718;52.124;6.226;2022-12-20T08:18:08;101134.59;;;9.23;87.81
76022;BME280;64718;52.124;6.226;2022-12-20T08:20:34;101131.41;;;9.15;88.22
76022;BME280;64718;52.124;6.226;2022-12-20T08:23:03;101125.50;;;9.10;88.03
76022;BME280;64718;52.124;6.226;2022-12-20T08:25:30;101140.13;;;9.12;88.21
76022;BME280;64718;52.124;6.226;2022-12-20T08:27:56;101146.38;;;9.07;88.51
76022;BME280;64718;52.124;6.226;2022-12-20T08:30:26;101139.53;;;9.04;89.06
76022;BME280;64718;52.124;6.226;2022-12-20T08:32:53;101137.88;;;9.02;89.33
76022;BME280;64718;52.124;6.226;2022-12-20T08:35:20;101130.03;;;9.03;89.22
76022;BME280;64718;52.124;6.226;2022-12-20T08:37:47;101123.34;;;8.96;89.47
76022;BME280;64718;52.124;6.226;2022-12-20T08:40:17;101131.22;;;8.93;90.06
76022;BME280;64718;52.124;6.226;2022-12-20T08:42:44;101121.81;;;8.91;90.14
76022;BME280;64718;52.124;6.226;2022-12-20T08:45:11;101128.06;;;8.83;90.73
76022;BME280;64718;52.124;6.226;2022-12-20T08:47:37;101131.44;;;8.87;90.22
76022;BME280;64718;52.124;6.226;2022-12-20T08:50:05;101127.00;;;8.91;90.31
76022;BME280;64718;52.124;6.226;2022-12-20T08:52:32;101127.69;;;8.96;89.72
76022;BME280;64718;52.124;6.226;2022-12-20T08:54:59;101128.00;;;9.13;88.66
76022;BME280;64718;52.124;6.226;2022-12-20T08:57:27;101124.94;;;9.28;88.61
76022;BME280;64718;52.124;6.226;2022-12-20T08:59:54;101119.06;;;9.22;88.90
76022;BME280;64718;52.124;6.226;2022-12-20T09:02:20;101118.97;;;9.25;88.91
76022;BME280;64718;52.124;6.226;2022-12-20T09:04:47;101128.38;;;9.29;88.89
76022;BME280;64718;52.124;6.226;2022-12-20T09:07:13;101125.69;;;9.32;88.81
76022;BME280;64718;52.124;6.226;2022-12-20T09:09:40;101120.44;;;9.33;88.47
76022;BME280;64718;52.124;6.226;2022-12-20T09:12:07;101122.00;;;9.39;88.22
76022;BME280;64718;52.124;6.226;2022-12-20T09:14:35;101121.69;;;9.48;88.15
76022;BME280;64718;52.124;6.226;2022-12-20T09:17:02;101116.50;;;9.48;88.38
76022;BME280;64718;52.124;6.226;2022-12-20T09:19:29;101127.72;;;9.48;88.52
76022;BME280;64718;52.124;6.226;2022-12-20T09:21:56;101122.44;;;9.51;88.33
76022;BME280;64718;52.124;6.226;2022-12-20T09:24:23;101123.38;;;9.49;89.23
76022;BME280;64718;52.124;6.226;2022-12-20T09:26:49;101128.38;;;9.55;89.36
76022;BME280;64718;52.124;6.226;2022-12-20T09:29:16;101139.75;;;9.51;89.93
76022;BME280;64718;52.124;6.226;2022-12-20T09:31:44;101140.72;;;9.48;90.83
76022;BME280;64718;52.124;6.226;2022-12-20T09:34:11;101140.16;;;9.39;91.49
76022;BME280;64718;52.124;6.226;2022-12-20T09:36:37;101134.38;;;9.31;92.58
76022;BME280;64718;52.124;6.226;2022-12-20T09:39:04;101133.69;;;9.24;93.15
76022;BME280;64718;52.124;6.226;2022-12-20T09:41:33;101138.94;;;9.23;93.72
76022;BME280;64718;52.124;6.226;2022-12-20T09:44:05;101133.25;;;9.11;94.39
76022;BME280;64718;52.124;6.226;2022-12-20T09:46:37;101124.72;;;9.08;94.29
76022;BME280;64718;52.124;6.226;2022-12-20T09:49:07;101124.84;;;9.03;95.24
76022;BME280;64718;52.124;6.226;2022-12-20T09:51:55;101122.41;;;8.99;95.15
76022;BME280;64718;52.124;6.226;2022-12-20T09:54:32;101113.69;;;9.01;95.43
76022;BME280;64718;52.124;6.226;2022-12-20T09:57:09;101111.03;;;9.03;95.42
76022;BME280;64718;52.124;6.226;2022-12-20T09:59:39;101113.59;;;9.04;95.46
76022;BME280;64718;52.124;6.226;2022-12-20T10:02:09;101110.09;;;9.05;95.22
76022;BME280;64718;52.124;6.226;2022-12-20T10:04:38;101108.28;;;9.07;95.13
76022;BME280;64718;52.124;6.226;2022-12-20T10:07:17;101104.66;;;9.13;95.52
76022;BME280;64718;52.124;6.226;2022-12-20T10:10:08;101099.31;;;9.17;95.14
76022;BME280;64718;52.124;6.226;2022-12-20T10:12:44;101101.84;;;9.19;95.14
76022;BME280;64718;52.124;6.226;2022-12-20T10:15:18;101103.59;;;9.18;95.10
76022;BME280;64718;52.124;6.226;2022-12-20T10:17:53;101111.16;;;9.26;95.02
76022;BME280;64718;52.124;6.226;2022-12-20T10:20:30;101098.38;;;9.20;94.77
76022;BME280;64718;52.124;6.226;2022-12-20T10:23:03;101101.84;;;9.19;94.73
76022;BME280;64718;52.124;6.226;2022-12-20T10:25:31;101103.69;;;9.15;95.28
76022;BME280;64718;52.124;6.226;2022-12-20T10:28:00;101102.75;;;9.18;95.08
76022;BME280;64718;52.124;6.226;2022-12-20T10:30:28;101105.59;;;9.10;95.71
76022;BME280;64718;52.124;6.226;2022-12-20T10:32:56;101097.91;;;9.07;95.69
76022;BME280;64718;52.124;6.226;2022-12-20T10:35:28;101104.00;;;9.06;95.51
76022;BME280;64718;52.124;6.226;2022-12-20T10:37:58;101093.63;;;9.06;95.72
76022;BME280;64718;52.124;6.226;2022-12-20T10:40:27;101083.78;;;9.16;95.12
76022;BME280;64718;52.124;6.226;2022-12-20T10:42:54;101083.91;;;9.13;95.59
76022;BME280;64718;52.124;6.226;2022-12-20T10:45:31;101086.44;;;9.14;95.05
76022;BME280;64718;52.124;6.226;2022-12-20T10:48:00;101097.56;;;9.18;95.47
76022;BME280;64718;52.124;6.226;2022-12-20T10:50:29;101099.31;;;9.17;95.42
76022;BME280;64718;52.124;6.226;2022-12-20T10:53:14;101101.16;;;9.14;95.70
76022;BME280;64718;52.124;6.226;2022-12-20T10:55:44;101096.03;;;9.12;96.26
76022;BME280;64718;52.124;6.226;2022-12-20T10:58:14;101102.31;;;9.05;96.05
76022;BME280;64718;52.124;6.226;2022-12-20T11:00:42;101093.72;;;9.03;96.59
76022;BME280;64718;52.124;6.226;2022-12-20T11:03:15;101085.00;;;9.06;97.13
76022;BME280;64718;52.124;6.226;2022-12-20T11:05:55;101083.34;;;9.03;97.03
76022;BME280;64718;52.124;6.226;2022-12-20T11:08:23;101079.81;;;9.06;97.00
76022;BME280;64718;52.124;6.226;2022-12-20T11:11:09;101076.09;;;9.13;97.02
76022;BME280;64718;52.124;6.226;2022-12-20T11:13:37;101070.13;;;9.11;97.14
76022;BME280;64718;52.124;6.226;2022-12-20T11:16:04;101073.34;;;9.17;96.87
76022;BME280;64718;52.124;6.226;2022-12-20T11:18:39;101064.69;;;9.18;96.92
76022;BME280;64718;52.124;6.226;2022-12-20T11:21:20;101062.09;;;9.18;97.09
76022;BME280;64718;52.124;6.226;2022-12-20T11:23:57;101062.03;;;9.20;96.96
76022;BME280;64718;52.124;6.226;2022-12-20T11:26:38;101055.16;;;9.19;96.81
76022;BME280;64718;52.124;6.226;2022-12-20T11:29:19;101056.88;;;9.18;96.77
76022;BME280;64718;52.124;6.226;2022-12-20T11:31:57;101050.06;;;9.16;97.02
76022;BME280;64718;52.124;6.226;2022-12-20T11:34:35;101063.72;;;9.21;96.60
76022;BME280;64718;52.124;6.226;2022-12-20T11:37:17;101049.72;;;9.27;97.00
76022;BME280;64718;52.124;6.226;2022-12-20T11:39:50;101055.66;;;9.30;96.61
76022;BME280;64718;52.124;6.226;2022-12-20T11:42:39;101054.81;;;9.30;96.52
76022;BME280;64718;52.124;6.226;2022-12-20T11:45:14;101043.47;;;9.32;96.25
76022;BME280;64718;52.124;6.226;2022-12-20T11:48:01;101045.22;;;9.32;96.56
76022;BME280;64718;52.124;6.226;2022-12-20T11:50:44;101038.13;;;9.37;96.83
76022;BME280;64718;52.124;6.226;2022-12-20T11:53:22;101035.44;;;9.40;96.44
76022;BME280;64718;52.124;6.226;2022-12-20T11:55:52;101032.78;;;9.41;96.81
76022;BME280;64718;52.124;6.226;2022-12-20T11:58:24;101026.78;;;9.39;96.27
76022;BME280;64718;52.124;6.226;2022-12-20T12:00:55;101029.44;;;9.38;96.85
76022;BME280;64718;52.124;6.226;2022-12-20T12:03:29;101028.66;;;9.36;96.55
76022;BME280;64718;52.124;6.226;2022-12-20T12:06:01;101030.50;;;9.32;96.53
76022;BME280;64718;52.124;6.226;2022-12-20T12:08:35;101024.31;;;9.36;96.74
76022;BME280;64718;52.124;6.226;2022-12-20T12:11:05;101025.03;;;9.40;96.88
76022;BME280;64718;52.124;6.226;2022-12-20T12:13:35;101011.06;;;9.44;96.46
76022;BME280;64718;52.124;6.226;2022-12-20T12:16:08;101016.25;;;9.44;97.05
76022;BME280;64718;52.124;6.226;2022-12-20T12:18:38;101017.25;;;9.40;96.66
76022;BME280;64718;52.124;6.226;2022-12-20T12:21:10;101023.97;;;9.45;96.53
76022;BME280;64718;52.124;6.226;2022-12-20T12:23:48;101017.78;;;9.49;96.43
76022;BME280;64718;52.124;6.226;2022-12-20T12:26:22;101013.44;;;9.50;96.51
76022;BME280;64718;52.124;6.226;2022-12-20T12:28:53;101012.59;;;9.49;96.53
76022;BME280;64718;52.124;6.226;2022-12-20T12:31:24;101009.75;;;9.56;96.36
76022;BME280;64718;52.124;6.226;2022-12-20T12:34:02;101018.34;;;9.58;96.58
76022;BME280;64718;52.124;6.226;2022-12-20T12:36:43;101015.69;;;9.59;96.45
76022;BME280;64718;52.124;6.226;2022-12-20T12:39:27;101012.16;;;9.62;96.44
76022;BME280;64718;52.124;6.226;2022-12-20T12:42:22;101006.16;;;9.60;96.66
76022;BME280;64718;52.124;6.226;2022-12-20T12:44:56;101007.13;;;9.57;96.60
76022;BME280;64718;52.124;6.226;2022-12-20T12:47:34;101002.66;;;9.61;96.72
76022;BME280;64718;52.124;6.226;2022-12-20T12:50:05;101011.28;;;9.61;97.16
76022;BME280;64718;52.124;6.226;2022-12-20T12:52:41;101013.94;;;9.60;97.04
76022;BME280;64718;52.124;6.226;2022-12-20T12:55:37;101005.47;;;9.55;96.72
76022;BME280;64718;52.124;6.226;2022-12-20T12:58:29;101009.75;;;9.56;96.94
76022;BME280;64718;52.124;6.226;2022-12-20T13:00:57;101002.50;;;9.65;96.61
76022;BME280;64718;52.124;6.226;2022-12-20T13:03:42;101012.88;;;9.65;96.77
76022;BME280;64718;52.124;6.226;2022-12-20T13:09:40;101005.09;;;9.65;97.32
76022;BME280;64718;52.124;6.226;2022-12-20T13:18:21;101016.38;;;9.64;96.70
76022;BME280;64718;52.124;6.226;2022-12-20T13:21:16;101012.78;;;9.68;96.74
76022;BME280;64718;52.124;6.226;2022-12-20T13:23:43;101012.03;;;9.65;96.67